Time;durP1;ratioP1;P1;durP2;ratioP2;P2;SDS_P1;SDS_P2;PMS_P1;PMS_P2;Temp;Humidity;BMP_temperature;BMP_pressure;BME280_temperature;BME280_humidity;BME280_pressure;Samples;Min_cycle;Max_cycle;Signal;HPM_P1;HPM_P2
2021/12/27 00:01:11;;;;;;;2.63;2.50;;;18.20;66.30;;;;;;4995440;28;20406;-27
2021/12/27 00:03:37;;;;;;;2.72;2.53;;;18.20;66.30;;;;;;4994941;28;20050;-27
2021/12/27 00:06:04;;;;;;;2.80;2.60;;;18.20;66.10;;;;;;5010320;28;20046;-26
2021/12/27 00:08:30;;;;;;;3.08;2.60;;;18.20;66.20;;;;;;4994887;28;20055;-27
2021/12/27 00:10:56;;;;;;;2.28;2.17;;;18.20;66.50;;;;;;5003047;28;20506;-26
2021/12/27 00:13:21;;;;;;;2.72;2.53;;;18.20;66.50;;;;;;5009261;28;20058;-27
2021/12/27 00:15:47;;;;;;;2.47;2.30;;;18.10;66.50;;;;;;4994646;28;20565;-27
2021/12/27 00:18:13;;;;;;;2.45;2.25;;;18.10;66.70;;;;;;4995931;28;20047;-27
2021/12/27 00:20:38;;;;;;;2.47;2.22;;;18.10;66.60;;;;;;5000245;28;20045;-27
2021/12/27 00:23:04;;;;;;;2.38;2.28;;;18.10;66.60;;;;;;4994722;28;20045;-27
2021/12/27 00:25:30;;;;;;;2.17;1.98;;;18.00;66.70;;;;;;4994272;28;20043;-27
2021/12/27 00:27:56;;;;;;;2.55;2.28;;;18.00;66.70;;;;;;4992862;28;20185;-27
2021/12/27 00:30:22;;;;;;;1.80;1.70;;;18.00;66.70;;;;;;4993491;28;20103;-27
2021/12/27 00:32:48;;;;;;;2.40;2.30;;;18.00;66.60;;;;;;4994119;28;20447;-27
2021/12/27 00:35:14;;;;;;;1.92;1.83;;;18.10;66.50;;;;;;4995753;28;20574;-27
2021/12/27 00:37:40;;;;;;;2.30;2.15;;;18.00;66.30;;;;;;4998693;28;20046;-26
2021/12/27 00:40:06;;;;;;;2.28;1.98;;;18.10;66.40;;;;;;4997170;28;20041;-27
2021/12/27 00:42:32;;;;;;;2.50;2.33;;;18.10;66.30;;;;;;4994508;28;20161;-27
2021/12/27 00:44:57;;;;;;;1.90;1.80;;;18.10;66.10;;;;;;4996038;28;20054;-27
2021/12/27 00:47:23;;;;;;;1.95;1.70;;;18.10;66.20;;;;;;4998734;28;20149;-26
2021/12/27 00:49:49;;;;;;;2.33;1.75;;;18.00;66.10;;;;;;4996724;28;20050;-27
2021/12/27 00:52:14;;;;;;;2.15;1.95;;;18.10;66.10;;;;;;4998055;28;20051;-27
2021/12/27 00:54:40;;;;;;;2.05;1.92;;;18.00;66.10;;;;;;5006460;28;20046;-27
2021/12/27 00:57:05;;;;;;;1.98;1.88;;;18.00;66.10;;;;;;4996612;28;20100;-27
2021/12/27 00:59:31;;;;;;;1.88;1.77;;;18.00;66.20;;;;;;5000328;28;20042;-27
2021/12/27 01:01:57;;;;;;;1.85;1.75;;;18.00;66.30;;;;;;5003624;28;20091;-26
2021/12/27 01:04:23;;;;;;;1.95;1.77;;;18.00;66.30;;;;;;4995560;28;20638;-27
2021/12/27 01:06:48;;;;;;;2.00;1.90;;;18.00;66.30;;;;;;4995818;28;20062;-26
2021/12/27 01:09:23;;;;;;;1.77;1.67;;;18.00;66.30;;;;;;4994670;28;20042;-27
2021/12/27 01:14:55;;;;;;;1.70;1.60;;;17.90;66.30;;;;;;5002689;28;20050;-27
2021/12/27 01:17:20;;;;;;;2.38;1.45;;;18.00;66.30;;;;;;4996353;28;20049;-27
2021/12/27 01:19:46;;;;;;;1.75;1.63;;;17.90;66.30;;;;;;4996065;28;20034;-26
2021/12/27 01:22:12;;;;;;;1.98;1.88;;;17.90;66.40;;;;;;4994326;28;20109;-27
2021/12/27 01:24:37;;;;;;;1.77;1.67;;;17.90;66.50;;;;;;4996461;28;20572;-27
2021/12/27 01:27:03;;;;;;;1.60;1.50;;;17.90;66.40;;;;;;4995954;28;20046;-27
2021/12/27 01:29:29;;;;;;;1.63;1.52;;;17.90;66.30;;;;;;5008270;28;20053;-27
2021/12/27 01:31:54;;;;;;;1.67;1.58;;;17.90;66.30;;;;;;5016885;28;20056;-27
2021/12/27 01:34:22;;;;;;;1.70;1.60;;;17.90;66.20;;;;;;5015743;28;20041;-27
2021/12/27 01:36:48;;;;;;;1.80;1.70;;;17.90;66.30;;;;;;5013964;28;20104;-26
2021/12/27 01:39:14;;;;;;;1.65;1.55;;;17.80;66.30;;;;;;5004673;28;20057;-27
2021/12/27 01:41:39;;;;;;;1.58;1.48;;;17.90;66.10;;;;;;5005602;28;20061;-27
2021/12/27 01:44:05;;;;;;;1.67;1.58;;;17.90;66.10;;;;;;4993871;28;20117;-27
2021/12/27 01:46:31;;;;;;;1.50;1.40;;;17.90;66.10;;;;;;4995909;28;20046;-27
2021/12/27 01:48:57;;;;;;;1.33;1.23;;;17.90;65.90;;;;;;4998105;28;20050;-26
2021/12/27 01:51:27;;;;;;;1.30;1.20;;;17.90;66.00;;;;;;4998811;28;20054;-27
2021/12/27 01:53:53;;;;;;;1.30;1.23;;;17.90;66.00;;;;;;5013310;28;20111;-27
2021/12/27 01:56:20;;;;;;;1.80;1.70;;;17.90;65.90;;;;;;5010106;28;20487;-26
2021/12/27 01:58:46;;;;;;;1.33;1.23;;;17.90;65.80;;;;;;4981275;28;20126;-27
2021/12/27 02:01:12;;;;;;;1.75;1.65;;;17.90;65.80;;;;;;4994897;28;20057;-27
2021/12/27 02:03:38;;;;;;;1.27;1.17;;;17.90;65.70;;;;;;4998037;28;20473;-27
2021/12/27 02:06:05;;;;;;;1.45;1.35;;;17.90;65.90;;;;;;4995281;28;20100;-27
2021/12/27 02:08:31;;;;;;;1.30;1.20;;;17.90;66.00;;;;;;4994525;28;20046;-27
2021/12/27 02:10:57;;;;;;;1.27;1.20;;;17.90;66.00;;;;;;4990983;28;20053;-26
2021/12/27 02:13:23;;;;;;;1.48;1.33;;;17.90;66.00;;;;;;4980608;28;20047;-27
2021/12/27 02:15:49;;;;;;;1.48;1.00;;;17.90;66.00;;;;;;4997621;28;20517;-26
2021/12/27 02:18:15;;;;;;;1.50;1.40;;;17.80;66.00;;;;;;5004286;28;20236;-27
2021/12/27 02:20:41;;;;;;;2.80;1.48;;;17.80;65.90;;;;;;5015852;28;20034;-27
2021/12/27 02:23:12;;;;;;;1.40;1.30;;;17.80;66.10;;;;;;5007944;28;20549;-27
2021/12/27 02:25:38;;;;;;;1.42;1.33;;;17.80;66.00;;;;;;4997414;28;20057;-27
2021/12/27 02:28:05;;;;;;;1.27;1.10;;;17.80;65.90;;;;;;4996107;28;20046;-27
2021/12/27 02:30:31;;;;;;;1.15;0.90;;;17.80;66.00;;;;;;4994030;28;20478;-27
2021/12/27 02:33:03;;;;;;;1.75;1.23;;;17.90;66.00;;;;;;5010565;28;20061;-27
2021/12/27 02:35:38;;;;;;;1.33;0.88;;;17.80;66.00;;;;;;4994775;28;20078;-27
2021/12/27 02:38:05;;;;;;;1.23;1.13;;;17.80;66.10;;;;;;4995488;28;20050;-27
2021/12/27 02:40:31;;;;;;;1.13;1.02;;;17.80;66.30;;;;;;5004093;28;20052;-27
2021/12/27 02:43:01;;;;;;;1.42;1.33;;;17.80;66.30;;;;;;4977681;28;20126;-26
2021/12/27 02:45:28;;;;;;;1.30;1.20;;;17.80;66.20;;;;;;4992171;28;20069;-26
2021/12/27 02:47:54;;;;;;;1.20;1.10;;;17.80;66.30;;;;;;5001293;28;20099;-27
2021/12/27 02:50:20;;;;;;;1.08;0.90;;;17.80;66.20;;;;;;4996358;28;20084;-27
2021/12/27 02:52:46;;;;;;;1.10;1.00;;;17.70;66.30;;;;;;5000649;28;20050;-27
2021/12/27 02:55:15;;;;;;;1.08;1.08;;;17.80;66.30;;;;;;4992855;28;20068;-26
2021/12/27 02:57:47;;;;;;;0.82;0.82;;;17.80;66.20;;;;;;4995840;28;20038;-27
2021/12/27 03:00:16;;;;;;;0.90;0.90;;;17.70;66.30;;;;;;4993976;28;20050;-27
2021/12/27 03:02:43;;;;;;;1.20;1.10;;;17.70;66.50;;;;;;4996616;28;20049;-27
2021/12/27 03:05:09;;;;;;;1.17;1.10;;;17.80;66.30;;;;;;4994988;28;20541;-27
2021/12/27 03:07:35;;;;;;;1.25;1.25;;;17.80;66.20;;;;;;4988014;28;20054;-27
2021/12/27 03:10:01;;;;;;;1.20;1.10;;;17.80;66.30;;;;;;5000345;28;20050;-27
2021/12/27 03:12:26;;;;;;;1.48;1.20;;;17.70;66.40;;;;;;4992410;28;20049;-27
2021/12/27 03:14:52;;;;;;;1.08;0.75;;;17.70;66.50;;;;;;4996036;28;20050;-27
2021/12/27 03:17:17;;;;;;;0.75;0.75;;;17.70;66.60;;;;;;4983270;28;20074;-27
2021/12/27 03:19:43;;;;;;;0.93;0.93;;;17.70;66.60;;;;;;4977274;28;20485;-27
2021/12/27 03:22:09;;;;;;;0.90;0.90;;;17.70;66.70;;;;;;4991477;28;20042;-27
2021/12/27 03:24:34;;;;;;;0.80;0.80;;;17.60;66.70;;;;;;5010749;28;20070;-26
2021/12/27 03:27:00;;;;;;;0.88;0.88;;;17.60;66.60;;;;;;5004071;28;20125;-27
2021/12/27 03:29:25;;;;;;;1.20;1.10;;;17.60;66.60;;;;;;5001186;28;20054;-27
2021/12/27 03:31:54;;;;;;;0.70;0.70;;;17.60;66.60;;;;;;5015948;28;20499;-27
2021/12/27 03:34:20;;;;;;;1.23;0.90;;;17.60;66.70;;;;;;4998795;28;20052;-27
2021/12/27 03:36:47;;;;;;;0.80;0.80;;;17.60;66.80;;;;;;4995178;28;20106;-27
2021/12/27 03:39:13;;;;;;;0.95;0.95;;;17.60;66.80;;;;;;4991112;28;20550;-27
2021/12/27 03:41:39;;;;;;;0.90;0.90;;;17.60;66.90;;;;;;4987816;28;20046;-27
2021/12/27 03:44:04;;;;;;;0.70;0.70;;;17.60;66.80;;;;;;4995855;28;20057;-26
2021/12/27 03:46:30;;;;;;;0.80;0.80;;;17.60;66.80;;;;;;4995402;28;20042;-26
2021/12/27 03:48:56;;;;;;;1.20;0.90;;;17.60;66.90;;;;;;4994366;28;20187;-26
2021/12/27 03:51:21;;;;;;;1.10;1.00;;;17.60;66.90;;;;;;4990625;28;20521;-27
2021/12/27 03:53:47;;;;;;;1.00;0.98;;;17.60;66.80;;;;;;4993760;28;20049;-26
2021/12/27 03:56:13;;;;;;;0.82;0.80;;;17.60;66.80;;;;;;5002216;28;20042;-27
2021/12/27 03:59:08;;;;;;;0.60;0.60;;;17.60;66.90;;;;;;5010761;28;20062;-27
2021/12/27 04:01:34;;;;;;;0.77;0.77;;;17.60;66.90;;;;;;5012783;28;20636;-27
2021/12/27 04:03:59;;;;;;;0.60;0.60;;;17.60;67.00;;;;;;5014838;28;20096;-26
2021/12/27 04:06:26;;;;;;;1.40;0.80;;;17.60;67.00;;;;;;5014964;28;20506;-27
2021/12/27 04:08:51;;;;;;;0.70;0.70;;;17.60;66.90;;;;;;5015057;28;20060;-26
2021/12/27 04:11:17;;;;;;;0.75;0.75;;;17.60;67.10;;;;;;5002918;28;20042;-27
2021/12/27 04:13:43;;;;;;;0.68;0.68;;;17.50;67.10;;;;;;4995476;28;20449;-27
2021/12/27 04:16:08;;;;;;;0.75;0.73;;;17.50;67.10;;;;;;5002458;28;20049;-27
2021/12/27 04:18:34;;;;;;;0.80;0.80;;;17.60;67.00;;;;;;4993194;28;20050;-27
2021/12/27 04:20:59;;;;;;;1.20;0.70;;;17.50;67.00;;;;;;4993223;28;20101;-27
2021/12/27 04:23:25;;;;;;;0.57;0.55;;;17.60;67.00;;;;;;4993628;28;20523;-27
2021/12/27 04:25:51;;;;;;;0.60;0.60;;;17.60;66.90;;;;;;4993749;28;20046;-26
2021/12/27 04:28:17;;;;;;;0.57;0.57;;;17.60;67.00;;;;;;4994058;28;20057;-26
2021/12/27 04:30:43;;;;;;;0.90;0.90;;;17.60;66.90;;;;;;4995164;28;20053;-26
2021/12/27 04:33:09;;;;;;;0.60;0.60;;;17.50;67.10;;;;;;4993472;28;20418;-26
2021/12/27 04:35:34;;;;;;;0.70;0.70;;;17.60;67.10;;;;;;4992507;28;20054;-27
2021/12/27 04:38:00;;;;;;;0.40;0.40;;;17.60;67.00;;;;;;5000660;28;20046;-26
2021/12/27 04:40:27;;;;;;;0.93;0.70;;;17.60;67.10;;;;;;4995919;28;20038;-27
2021/12/27 04:42:56;;;;;;;1.02;0.60;;;17.60;67.10;;;;;;5007573;28;20405;-26
2021/12/27 04:45:22;;;;;;;0.68;0.60;;;17.50;67.00;;;;;;4996450;28;20044;-26
2021/12/27 04:47:48;;;;;;;0.45;0.43;;;17.50;67.10;;;;;;4993726;28;20122;-27
2021/12/27 04:50:13;;;;;;;0.68;0.68;;;17.50;67.00;;;;;;4994868;28;20054;-27
2021/12/27 04:52:39;;;;;;;0.90;0.60;;;17.50;67.10;;;;;;5004824;28;20049;-27
2021/12/27 04:55:05;;;;;;;0.60;0.60;;;17.50;67.00;;;;;;4995429;28;20046;-26
2021/12/27 04:57:30;;;;;;;0.60;0.60;;;17.50;67.00;;;;;;4991448;28;20136;-27
2021/12/27 04:59:56;;;;;;;0.60;0.60;;;17.50;67.10;;;;;;4996636;28;20046;-26
2021/12/27 05:02:22;;;;;;;0.68;0.68;;;17.60;67.10;;;;;;4993769;28;20154;-27
2021/12/27 05:04:47;;;;;;;0.75;0.65;;;17.50;67.00;;;;;;4992291;28;20380;-27
2021/12/27 05:07:13;;;;;;;0.50;0.50;;;17.50;67.00;;;;;;4993332;28;20054;-27
2021/12/27 05:09:39;;;;;;;0.60;0.60;;;17.50;67.10;;;;;;4994410;28;20046;-27
2021/12/27 05:12:05;;;;;;;0.57;0.57;;;17.50;67.10;;;;;;5001036;28;20114;-27
2021/12/27 05:14:30;;;;;;;0.55;0.55;;;17.50;67.10;;;;;;4993325;28;20097;-28
2021/12/27 05:16:56;;;;;;;0.40;0.40;;;17.50;67.10;;;;;;4994750;28;20046;-27
2021/12/27 05:19:22;;;;;;;0.50;0.50;;;17.50;67.00;;;;;;4994406;28;20538;-28
2021/12/27 05:21:47;;;;;;;0.52;0.52;;;17.50;67.10;;;;;;5000176;28;20103;-28
2021/12/27 05:24:13;;;;;;;0.60;0.60;;;17.50;67.00;;;;;;4999497;28;20802;-28
2021/12/27 05:26:39;;;;;;;0.40;0.40;;;17.50;67.00;;;;;;4995343;28;20046;-27
2021/12/27 05:29:05;;;;;;;0.57;0.50;;;17.50;66.90;;;;;;4997414;28;20046;-27
2021/12/27 05:31:31;;;;;;;0.45;0.40;;;17.50;66.90;;;;;;5005519;28;20109;-28
2021/12/27 05:33:56;;;;;;;0.50;0.40;;;17.50;66.90;;;;;;4996754;28;20133;-28
2021/12/27 05:36:22;;;;;;;1.08;0.55;;;17.50;66.90;;;;;;4997738;28;21226;-28
2021/12/27 05:38:47;;;;;;;0.68;0.50;;;17.50;66.80;;;;;;4997178;28;20056;-28
2021/12/27 05:41:13;;;;;;;0.65;0.65;;;17.50;66.80;;;;;;5012781;28;20053;-27
2021/12/27 05:43:39;;;;;;;0.40;0.40;;;17.50;66.90;;;;;;5016993;28;20045;-28
2021/12/27 05:46:04;;;;;;;0.40;0.40;;;17.50;66.80;;;;;;5004204;28;20054;-27
2021/12/27 05:48:30;;;;;;;0.40;0.40;;;17.50;67.00;;;;;;4995087;28;20474;-28
2021/12/27 05:50:55;;;;;;;0.50;0.50;;;17.50;66.90;;;;;;4994664;28;20073;-27
2021/12/27 05:53:21;;;;;;;0.50;0.50;;;17.50;66.90;;;;;;4996967;28;20073;-28
2021/12/27 05:55:47;;;;;;;0.75;0.52;;;17.50;66.90;;;;;;4996277;28;20046;-27
2021/12/27 05:58:12;;;;;;;0.52;0.52;;;17.50;66.80;;;;;;4997591;28;20035;-27
2021/12/27 06:00:39;;;;;;;0.40;0.40;;;17.50;66.80;;;;;;5007602;28;20050;-28
2021/12/27 06:03:04;;;;;;;0.60;0.60;;;17.50;66.80;;;;;;5017566;28;20042;-27
2021/12/27 06:05:30;;;;;;;0.40;0.40;;;17.50;66.80;;;;;;4998880;28;20057;-28
2021/12/27 06:07:56;;;;;;;0.30;0.30;;;17.50;66.70;;;;;;5017484;28;20477;-28
2021/12/27 06:10:21;;;;;;;0.68;0.40;;;17.50;66.80;;;;;;5006975;28;20082;-28
2021/12/27 06:12:47;;;;;;;0.30;0.30;;;17.50;66.70;;;;;;4995839;28;20047;-27
2021/12/27 06:15:13;;;;;;;0.30;0.30;;;17.50;66.70;;;;;;4997527;28;20049;-26
2021/12/27 06:17:39;;;;;;;0.40;0.40;;;17.50;66.70;;;;;;4996708;28;20114;-27
2021/12/27 06:20:07;;;;;;;0.40;0.40;;;17.50;66.80;;;;;;5001411;28;20050;-27
2021/12/27 06:22:33;;;;;;;0.40;0.40;;;17.50;66.70;;;;;;5016226;28;20033;-27
2021/12/27 06:25:03;;;;;;;0.38;0.38;;;17.50;66.70;;;;;;5016412;28;20542;-28
2021/12/27 06:27:32;;;;;;;0.50;0.45;;;17.50;66.70;;;;;;4998702;28;20416;-28
2021/12/27 06:29:58;;;;;;;0.70;0.40;;;17.50;66.80;;;;;;5008900;28;20042;-28
2021/12/27 06:32:24;;;;;;;0.45;0.45;;;17.50;66.70;;;;;;4977314;28;20097;-27
2021/12/27 06:34:49;;;;;;;0.50;0.35;;;17.50;66.70;;;;;;4977788;28;20046;-28
2021/12/27 06:37:15;;;;;;;0.45;0.45;;;17.50;66.70;;;;;;4986738;28;20526;-28
2021/12/27 06:39:40;;;;;;;0.40;0.40;;;17.50;66.80;;;;;;4996583;28;20100;-27
2021/12/27 06:42:07;;;;;;;0.30;0.30;;;17.50;66.80;;;;;;4995272;28;20054;-28
2021/12/27 06:44:33;;;;;;;0.28;0.20;;;17.50;66.80;;;;;;4996396;28;20057;-28
2021/12/27 06:46:59;;;;;;;0.30;0.30;;;17.50;66.80;;;;;;4992665;28;20034;-28
2021/12/27 06:49:29;;;;;;;0.30;0.30;;;17.50;66.90;;;;;;5004734;28;20054;-28
2021/12/27 06:51:54;;;;;;;0.30;0.30;;;17.50;66.90;;;;;;4995322;28;20042;-28
2021/12/27 06:54:20;;;;;;;0.38;0.17;;;17.50;67.00;;;;;;4996024;28;20105;-27
2021/12/27 06:56:46;;;;;;;0.20;0.20;;;17.50;66.90;;;;;;4994777;28;20100;-27
2021/12/27 06:59:12;;;;;;;0.40;0.40;;;17.50;66.90;;;;;;5026859;28;20096;-27
2021/12/27 07:01:38;;;;;;;0.30;0.30;;;17.50;66.80;;;;;;5007534;28;20069;-27
2021/12/27 07:04:03;;;;;;;0.30;0.30;;;17.50;66.80;;;;;;5008082;28;20065;-28
2021/12/27 07:06:29;;;;;;;0.20;0.20;;;17.50;66.90;;;;;;5004799;28;20045;-27
2021/12/27 07:08:55;;;;;;;0.35;0.35;;;17.50;66.80;;;;;;5013953;28;20506;-28
2021/12/27 07:11:20;;;;;;;0.30;0.30;;;17.50;66.70;;;;;;4995761;28;20046;-28
2021/12/27 07:13:46;;;;;;;0.28;0.28;;;17.50;66.80;;;;;;4996321;28;20062;-28
2021/12/27 07:16:11;;;;;;;0.38;0.38;;;17.50;66.80;;;;;;4994648;28;20053;-27
2021/12/27 07:18:37;;;;;;;0.40;0.40;;;17.50;66.90;;;;;;5002765;28;20046;-28
2021/12/27 07:21:03;;;;;;;0.30;0.30;;;17.40;66.80;;;;;;4996189;28;20058;-27
2021/12/27 07:23:28;;;;;;;0.38;0.38;;;17.50;66.90;;;;;;4994312;28;20057;-28
2021/12/27 07:25:54;;;;;;;0.30;0.30;;;17.50;66.90;;;;;;4994175;28;20054;-28
2021/12/27 07:28:20;;;;;;;0.20;0.20;;;17.40;66.80;;;;;;4993451;28;20046;-28
2021/12/27 07:30:45;;;;;;;0.30;0.30;;;17.50;66.90;;;;;;4995692;28;20053;-28
2021/12/27 07:33:11;;;;;;;0.63;0.38;;;17.40;66.90;;;;;;5003546;28;20042;-27
2021/12/27 07:35:37;;;;;;;0.38;0.30;;;17.50;66.90;;;;;;4995491;28;20136;-27
2021/12/27 07:38:03;;;;;;;0.30;0.30;;;17.50;66.80;;;;;;4996358;28;20051;-27
2021/12/27 07:40:28;;;;;;;0.45;0.40;;;17.40;66.90;;;;;;4993843;28;20108;-27
2021/12/27 07:42:54;;;;;;;0.57;0.43;;;17.40;67.60;;;;;;4992367;28;20046;-27
2021/12/27 07:45:19;;;;;;;0.40;0.30;;;17.40;66.90;;;;;;4989525;28;20189;-27
2021/12/27 07:47:45;;;;;;;0.20;0.20;;;17.40;66.90;;;;;;4994869;28;20042;-28
2021/12/27 07:50:11;;;;;;;0.20;0.20;;;17.40;66.90;;;;;;5006036;28;20521;-28
2021/12/27 07:52:36;;;;;;;0.40;0.30;;;17.40;66.90;;;;;;4995319;28;20050;-28
2021/12/27 07:55:03;;;;;;;0.40;0.40;;;17.50;67.00;;;;;;4995022;28;20518;-27
2021/12/27 07:57:28;;;;;;;0.40;0.40;;;17.40;66.90;;;;;;4994577;28;20134;-28
2021/12/27 07:59:54;;;;;;;0.40;0.40;;;17.40;66.90;;;;;;4995958;28;20066;-28
2021/12/27 08:02:19;;;;;;;1.63;0.40;;;17.40;67.00;;;;;;4993973;28;20054;-27
2021/12/27 08:04:45;;;;;;;0.68;0.35;;;17.40;67.10;;;;;;4993717;28;20054;-28
2021/12/27 08:07:11;;;;;;;0.30;0.30;;;17.40;67.10;;;;;;4995429;28;20054;-28
2021/12/27 08:09:36;;;;;;;0.40;0.40;;;17.40;67.10;;;;;;4991505;28;20126;-27
2021/12/27 08:12:03;;;;;;;0.30;0.30;;;17.40;67.10;;;;;;4995239;28;20061;-28
2021/12/27 08:14:29;;;;;;;0.38;0.30;;;17.40;67.20;;;;;;4994456;28;20054;-28
2021/12/27 08:16:54;;;;;;;1.20;0.45;;;17.40;67.00;;;;;;4993909;28;20046;-28
2021/12/27 08:19:20;;;;;;;0.45;0.45;;;17.40;67.10;;;;;;4993264;28;20104;-27
2021/12/27 08:21:45;;;;;;;0.38;0.30;;;17.40;67.20;;;;;;4993059;28;20105;-27
2021/12/27 08:24:11;;;;;;;0.40;0.28;;;17.40;67.10;;;;;;4993632;28;20469;-28
2021/12/27 08:26:37;;;;;;;0.40;0.40;;;17.40;67.10;;;;;;4992768;28;20487;-28
2021/12/27 08:29:05;;;;;;;0.82;0.40;;;17.40;67.10;;;;;;4995327;28;20050;-27
2021/12/27 08:31:31;;;;;;;0.50;0.40;;;17.40;67.20;;;;;;4994194;28;20050;-28
2021/12/27 08:33:56;;;;;;;1.25;0.32;;;17.40;67.10;;;;;;4993994;28;20184;-28
2021/12/27 08:36:22;;;;;;;0.50;0.40;;;17.40;67.00;;;;;;4993566;28;20431;-28
2021/12/27 08:38:49;;;;;;;0.40;0.40;;;17.40;67.00;;;;;;4994666;28;20061;-28
2021/12/27 08:41:15;;;;;;;0.45;0.43;;;17.40;67.10;;;;;;4992480;28;20510;-28
2021/12/27 08:43:42;;;;;;;0.30;0.30;;;17.40;67.10;;;;;;4994356;28;20053;-27
2021/12/27 08:46:08;;;;;;;0.50;0.35;;;17.40;67.10;;;;;;5000504;28;20047;-28
2021/12/27 08:48:33;;;;;;;1.00;0.35;;;17.40;67.10;;;;;;4994698;28;20085;-28
2021/12/27 08:50:59;;;;;;;1.05;0.40;;;17.40;67.00;;;;;;4994603;28;20050;-28
2021/12/27 08:53:24;;;;;;;0.40;0.40;;;17.40;67.10;;;;;;4987387;28;20797;-28
2021/12/27 08:55:50;;;;;;;0.40;0.30;;;17.40;67.00;;;;;;4994906;28;20054;-28
2021/12/27 08:58:16;;;;;;;0.52;0.50;;;17.40;67.10;;;;;;4995065;28;20502;-27
2021/12/27 09:00:41;;;;;;;0.30;0.30;;;17.40;67.10;;;;;;4998703;28;20591;-28
2021/12/27 09:03:07;;;;;;;0.30;0.30;;;17.40;67.10;;;;;;4993732;28;20154;-27
2021/12/27 09:05:33;;;;;;;0.98;0.60;;;17.40;67.20;;;;;;4995492;28;20052;-27
2021/12/27 09:07:58;;;;;;;0.77;0.45;;;17.40;67.20;;;;;;4996654;28;20503;-29
2021/12/27 09:10:24;;;;;;;0.75;0.60;;;17.40;67.20;;;;;;4992992;28;20640;-27
2021/12/27 09:12:50;;;;;;;0.47;0.40;;;17.50;66.90;;;;;;5004326;28;20054;-27
2021/12/27 09:15:15;;;;;;;0.65;0.50;;;17.40;67.40;;;;;;4997184;28;20076;-27
2021/12/27 09:17:41;;;;;;;0.90;0.50;;;17.50;68.00;;;;;;4994296;28;20406;-27
2021/12/27 09:20:07;;;;;;;1.15;0.65;;;17.50;68.20;;;;;;4996335;28;20050;-27
2021/12/27 09:22:33;;;;;;;0.63;0.60;;;17.40;68.10;;;;;;4997421;28;20459;-27
2021/12/27 09:24:58;;;;;;;1.00;0.55;;;17.40;68.20;;;;;;4991361;28;20050;-27
2021/12/27 09:27:24;;;;;;;1.15;1.02;;;17.50;68.10;;;;;;4993714;28;20177;-27
2021/12/27 09:29:51;;;;;;;0.80;0.63;;;17.50;67.90;;;;;;4996033;28;20041;-27
2021/12/27 09:32:16;;;;;;;1.30;0.80;;;17.60;67.80;;;;;;4994897;28;20248;-27
2021/12/27 09:34:42;;;;;;;1.63;0.70;;;17.50;67.50;;;;;;4992313;28;20117;-27
2021/12/27 09:37:08;;;;;;;2.97;0.80;;;17.50;67.60;;;;;;4994025;28;20042;-27
2021/12/27 09:39:34;;;;;;;1.23;0.63;;;17.50;67.70;;;;;;4993260;28;20069;-27
2021/12/27 09:42:00;;;;;;;0.63;0.63;;;17.50;67.70;;;;;;4995226;28;20057;-27
2021/12/27 09:44:25;;;;;;;2.33;0.60;;;17.50;67.50;;;;;;4992285;28;20050;-27
2021/12/27 09:46:51;;;;;;;1.85;0.75;;;17.50;67.40;;;;;;4997057;28;20046;-27
2021/12/27 09:49:17;;;;;;;1.00;0.90;;;17.60;67.30;;;;;;4996447;28;20038;-27
2021/12/27 09:51:44;;;;;;;1.50;0.90;;;17.60;67.20;;;;;;4996007;28;20467;-27
2021/12/27 09:54:09;;;;;;;1.17;0.70;;;17.60;67.30;;;;;;4992334;28;20054;-27
2021/12/27 09:56:35;;;;;;;1.48;0.70;;;17.60;67.20;;;;;;4994063;28;20077;-27
2021/12/27 09:59:01;;;;;;;1.42;0.80;;;17.60;67.30;;;;;;4991409;28;20042;-27
2021/12/27 10:01:26;;;;;;;1.38;0.90;;;17.60;67.80;;;;;;4995607;28;20507;-27
2021/12/27 10:03:57;;;;;;;1.30;1.10;;;17.60;67.80;;;;;;5005561;28;20038;-27
2021/12/27 10:06:24;;;;;;;1.58;0.90;;;17.60;68.00;;;;;;5015196;28;20088;-27
2021/12/27 10:08:51;;;;;;;1.35;1.10;;;17.60;68.00;;;;;;5002637;28;20050;-28
2021/12/27 10:11:22;;;;;;;2.95;0.70;;;17.60;68.00;;;;;;4992859;28;20051;-27
2021/12/27 10:14:03;;;;;;;1.13;0.60;;;17.60;68.10;;;;;;4989105;28;20054;-26
2021/12/27 10:16:29;;;;;;;3.90;1.00;;;17.70;67.90;;;;;;4986431;28;20065;-26
2021/12/27 10:19:00;;;;;;;1.77;1.00;;;17.70;68.20;;;;;;4988475;28;20066;-25
2021/12/27 10:21:25;;;;;;;1.88;0.80;;;17.70;68.30;;;;;;4994646;28;20112;-25
2021/12/27 10:24:05;;;;;;;3.50;1.40;;;17.80;68.20;;;;;;4990847;28;20138;-25
2021/12/27 10:26:31;;;;;;;4.47;1.45;;;17.80;67.90;;;;;;4986762;28;20470;-26
2021/12/27 10:29:17;;;;;;;1.45;0.82;;;17.80;68.40;;;;;;4994459;28;20168;-26
2021/12/27 10:31:49;;;;;;;1.63;0.75;;;17.80;67.90;;;;;;4988891;28;20100;-26
2021/12/27 10:34:15;;;;;;;1.50;1.07;;;17.80;68.10;;;;;;4646114;28;10000644;-26
2021/12/27 10:37:10;;;;;;;1.77;0.70;;;17.70;68.10;;;;;;4989483;28;20393;-26
2021/12/27 10:39:43;;;;;;;1.08;0.80;;;17.70;68.10;;;;;;4997350;28;20188;-26
2021/12/27 10:42:08;;;;;;;1.52;0.95;;;17.70;68.10;;;;;;5006251;28;20058;-26
2021/12/27 10:44:36;;;;;;;2.97;1.17;;;17.70;68.00;;;;;;4999638;28;20050;-27
2021/12/27 10:47:01;;;;;;;2.08;0.98;;;17.70;68.00;;;;;;4999873;28;20050;-26
2021/12/27 10:49:46;;;;;;;4.97;1.23;;;17.70;67.90;;;;;;4992175;28;20407;-26
2021/12/27 10:52:11;;;;;;;2.17;0.90;;;17.70;67.90;;;;;;4985603;28;20046;-26
2021/12/27 10:54:37;;;;;;;2.25;0.90;;;17.70;68.00;;;;;;4991998;28;20108;-26
2021/12/27 10:57:03;;;;;;;2.80;1.58;;;17.70;67.80;;;;;;4991726;28;20054;-26
2021/12/27 10:59:29;;;;;;;2.88;1.00;;;17.70;67.90;;;;;;4993256;28;20133;-28
2021/12/27 11:01:55;;;;;;;2.00;0.88;;;17.80;67.70;;;;;;4992389;28;20042;-26
2021/12/27 11:04:21;;;;;;;1.65;1.17;;;17.80;67.60;;;;;;4996613;28;20134;-27
2021/12/27 11:06:48;;;;;;;2.08;1.10;;;17.80;67.50;;;;;;4991827;28;20057;-27
2021/12/27 11:09:14;;;;;;;2.28;1.10;;;17.80;67.50;;;;;;4992324;28;20089;-27
2021/12/27 11:11:40;;;;;;;1.77;1.30;;;17.70;67.60;;;;;;4987946;28;20051;-27
2021/12/27 11:14:06;;;;;;;2.38;1.35;;;17.80;67.50;;;;;;4997503;28;20058;-27
2021/12/27 11:16:31;;;;;;;2.83;1.00;;;17.80;67.40;;;;;;4989065;28;20042;-27
2021/12/27 11:18:57;;;;;;;3.13;1.10;;;17.80;67.50;;;;;;5010621;28;20514;-27
2021/12/27 11:21:31;;;;;;;1.45;0.70;;;17.70;67.40;;;;;;5012133;28;20072;-27
2021/12/27 11:23:57;;;;;;;1.45;0.93;;;17.80;67.30;;;;;;5009864;28;20513;-27
2021/12/27 11:26:24;;;;;;;1.42;0.80;;;17.80;67.30;;;;;;5010565;28;20049;-27
2021/12/27 11:28:50;;;;;;;3.63;1.25;;;17.80;67.10;;;;;;5007000;28;20049;-27
2021/12/27 11:31:23;;;;;;;1.42;1.13;;;17.80;67.10;;;;;;4992466;28;20487;-27
2021/12/27 11:33:55;;;;;;;1.70;1.10;;;17.80;67.10;;;;;;4986382;28;20048;-27
2021/12/27 11:36:23;;;;;;;3.08;1.70;;;17.80;67.10;;;;;;4993134;28;20034;-27
2021/12/27 11:38:48;;;;;;;2.53;1.00;;;17.80;67.30;;;;;;4992264;28;20026;-27
2021/12/27 11:41:39;;;;;;;5.82;1.05;;;17.80;67.40;;;;;;4992551;28;20056;-27
2021/12/27 11:44:08;;;;;;;3.55;1.10;;;17.90;67.40;;;;;;4990281;28;20593;-27
2021/12/27 11:46:50;;;;;;;2.50;1.23;;;17.80;67.50;;;;;;4997539;28;20054;-27
2021/12/27 11:49:16;;;;;;;1.95;0.90;;;17.80;68.20;;;;;;4996648;28;20402;-27
2021/12/27 11:51:43;;;;;;;2.30;1.33;;;17.90;68.30;;;;;;5008293;28;20042;-27
2021/12/27 11:54:28;;;;;;;1.77;0.95;;;17.90;68.20;;;;;;5010510;28;20550;-27
2021/12/27 11:56:54;;;;;;;1.60;0.93;;;17.90;68.00;;;;;;5009760;28;20065;-27
2021/12/27 11:59:26;;;;;;;2.85;1.20;;;17.90;68.00;;;;;;4995187;28;20077;-27
2021/12/27 12:01:56;;;;;;;3.80;1.20;;;18.00;67.90;;;;;;4988679;28;20053;-27
2021/12/27 12:04:48;;;;;;;1.60;1.13;;;18.00;67.90;;;;;;4990928;28;20477;-27
2021/12/27 12:07:32;;;;;;;1.95;0.88;;;18.00;68.10;;;;;;5005989;28;20065;-27
2021/12/27 12:09:58;;;;;;;3.35;1.42;;;18.00;68.00;;;;;;4989359;28;20038;-27
2021/12/27 12:12:24;;;;;;;2.45;1.13;;;18.00;68.00;;;;;;4996945;28;20049;-26
2021/12/27 12:14:59;;;;;;;2.13;1.13;;;18.00;67.90;;;;;;4990016;28;20490;-26
2021/12/27 12:17:40;;;;;;;1.48;1.17;;;18.10;67.80;;;;;;4991824;28;20506;-26
2021/12/27 12:20:07;;;;;;;1.17;1.00;;;18.10;67.80;;;;;;4989796;28;20051;-27
2021/12/27 12:22:39;;;;;;;3.00;1.00;;;18.10;67.70;;;;;;4991731;28;20093;-27
2021/12/27 12:25:21;;;;;;;1.70;1.00;;;18.10;67.60;;;;;;4991043;28;20114;-26
2021/12/27 12:27:50;;;;;;;1.65;1.20;;;18.10;67.60;;;;;;4985375;28;20113;-27
2021/12/27 12:30:15;;;;;;;2.70;1.17;;;18.20;67.50;;;;;;4997438;28;20486;-28
2021/12/27 12:32:56;;;;;;;4.85;1.45;;;18.10;67.60;;;;;;4994484;28;20108;-27
2021/12/27 12:35:51;;;;;;;3.05;1.10;;;18.20;67.50;;;;;;5014840;28;20045;-26
2021/12/27 12:38:30;;;;;;;1.65;0.90;;;18.20;67.70;;;;;;4995942;28;20042;-25
2021/12/27 12:41:06;;;;;;;1.77;1.00;;;18.30;67.90;;;;;;4986749;28;20047;-27
2021/12/27 12:43:35;;;;;;;4.28;1.00;;;18.20;67.40;;;;;;4993225;28;20068;-26
2021/12/27 12:46:17;;;;;;;3.30;1.20;;;18.30;67.70;;;;;;4997461;28;20050;-26
2021/12/27 12:48:43;;;;;;;4.43;1.10;;;18.40;67.30;;;;;;5001805;28;20529;-26